Time;durP1;ratioP1;P1;durP2;ratioP2;P2;SDS_P1;SDS_P2;PMS_P1;PMS_P2;Temp;Humidity;BMP_temperature;BMP_pressure;BME280_temperature;BME280_humidity;BME280_pressure;Samples;Min_cycle;Max_cycle;Signal;HPM_P1;HPM_P2
2023/04/02 00:01:22;;;;;;;3.65;1.40;;;6.40;97.50;;;;;;5095170;28;20024;-65
2023/04/02 00:03:58;;;;;;;8.70;3.22;;;6.40;97.40;;;;;;5093230;28;20032;-65
2023/04/02 00:06:31;;;;;;;4.63;2.08;;;6.40;97.30;;;;;;5096249;28;20039;-65
2023/04/02 00:09:23;;;;;;;4.90;1.50;;;6.30;96.80;;;;;;5084449;28;20475;-65
2023/04/02 00:11:54;;;;;;;5.60;1.77;;;6.20;96.10;;;;;;5081444;28;20096;-65
2023/04/02 00:14:27;;;;;;;8.93;3.80;;;6.20;96.10;;;;;;5076232;28;20032;-65
2023/04/02 00:17:01;;;;;;;5.88;2.67;;;6.10;95.70;;;;;;5084328;28;20066;-65
2023/04/02 00:19:29;;;;;;;4.93;1.85;;;6.10;95.70;;;;;;5088416;28;20422;-65
2023/04/02 00:21:57;;;;;;;3.40;1.60;;;6.10;95.20;;;;;;5089521;28;20027;-65
2023/04/02 00:24:23;;;;;;;3.47;1.40;;;6.10;95.70;;;;;;5082840;28;20107;-65
2023/04/02 00:26:51;;;;;;;6.70;2.22;;;6.00;95.30;;;;;;5091111;28;20103;-65
2023/04/02 00:29:18;;;;;;;5.03;1.30;;;6.10;96.00;;;;;;5092232;28;20036;-65
2023/04/02 00:31:49;;;;;;;8.10;2.85;;;6.10;96.80;;;;;;5095988;28;20136;-65
2023/04/02 00:34:35;;;;;;;2.63;1.20;;;6.20;96.90;;;;;;5097729;28;20447;-64
2023/04/02 00:37:01;;;;;;;3.97;1.23;;;6.20;97.30;;;;;;5094510;28;20043;-67
2023/04/02 00:39:31;;;;;;;3.42;1.23;;;6.10;97.10;;;;;;5087435;28;20313;-67
2023/04/02 00:42:04;;;;;;;2.45;1.10;;;6.10;96.90;;;;;;5087085;28;20566;-65
2023/04/02 00:44:43;;;;;;;2.60;1.38;;;6.00;96.40;;;;;;5081581;28;20025;-65
2023/04/02 00:47:20;;;;;;;3.15;1.25;;;6.00;96.10;;;;;;5088173;28;20024;-66
2023/04/02 00:49:48;;;;;;;2.60;1.30;;;6.00;96.40;;;;;;5083086;28;20185;-65
2023/04/02 00:52:19;;;;;;;2.60;1.20;;;6.00;96.20;;;;;;5086116;28;20031;-65
2023/04/02 00:54:49;;;;;;;7.32;1.80;;;6.10;96.70;;;;;;5077167;28;20032;-66
2023/04/02 00:57:22;;;;;;;3.13;1.38;;;6.20;97.10;;;;;;5077366;28;20040;-66
2023/04/02 00:59:56;;;;;;;3.53;1.40;;;6.30;97.40;;;;;;5075920;28;20313;-66
2023/04/02 01:02:29;;;;;;;5.75;1.58;;;6.30;97.40;;;;;;5091728;28;20040;-65
2023/04/02 01:05:15;;;;;;;3.40;1.27;;;6.40;97.60;;;;;;5091848;28;20173;-65
2023/04/02 01:07:41;;;;;;;4.63;1.48;;;6.40;97.40;;;;;;5080858;28;20043;-66
2023/04/02 01:10:20;;;;;;;3.30;1.30;;;6.40;97.50;;;;;;5096103;28;20325;-66
2023/04/02 01:12:54;;;;;;;3.33;1.30;;;6.30;97.30;;;;;;5091047;28;20031;-66
2023/04/02 01:15:41;;;;;;;4.97;1.52;;;6.10;96.70;;;;;;5097402;28;20055;-66
2023/04/02 01:18:19;;;;;;;6.43;2.00;;;6.10;96.60;;;;;;5082499;28;20039;-65
2023/04/02 01:21:14;;;;;;;5.35;1.67;;;6.00;96.50;;;;;;5094109;28;20016;-66
2023/04/02 01:23:51;;;;;;;4.68;1.90;;;5.80;96.20;;;;;;5091651;28;20035;-65
2023/04/02 01:26:26;;;;;;;6.13;2.00;;;5.70;95.40;;;;;;5089734;28;20103;-66
2023/04/02 01:29:07;;;;;;;3.50;1.30;;;5.60;94.50;;;;;;5082704;28;20024;-65
2023/04/02 01:31:34;;;;;;;4.03;1.20;;;5.70;93.90;;;;;;5082573;28;20033;-65
2023/04/02 01:34:02;;;;;;;6.18;1.70;;;5.80;95.00;;;;;;5083767;28;20067;-66
2023/04/02 01:36:39;;;;;;;4.40;1.60;;;5.90;95.30;;;;;;5088815;28;20313;-65
2023/04/02 01:39:46;;;;;;;5.13;1.40;;;6.10;96.20;;;;;;5087645;28;20302;-65
2023/04/02 01:42:32;;;;;;;5.82;1.83;;;6.10;96.50;;;;;;5085973;28;20421;-65
2023/04/02 01:45:13;;;;;;;5.35;1.60;;;6.10;96.90;;;;;;5083079;28;20123;-65
2023/04/02 01:47:41;;;;;;;5.03;1.30;;;6.10;96.50;;;;;;5083459;28;20016;-66
2023/04/02 01:50:15;;;;;;;3.92;1.67;;;6.10;96.40;;;;;;5077672;28;20063;-65
2023/04/02 01:52:43;;;;;;;;;;;6.10;96.60;;;;;;5079160;28;20028;-65
2023/04/02 01:55:12;;;;;;;5.45;1.92;;;6.30;96.80;;;;;;5087818;28;20289;-65
2023/04/02 01:57:43;;;;;;;4.55;1.50;;;6.30;97.50;;;;;;5079300;28;20051;-65
2023/04/02 02:00:14;;;;;;;5.70;1.70;;;6.40;97.50;;;;;;5082621;28;20032;-65
2023/04/02 02:02:42;;;;;;;7.05;1.73;;;6.50;97.70;;;;;;5082463;28;20023;-65
2023/04/02 02:05:16;;;;;;;6.10;2.28;;;6.50;97.60;;;;;;5095055;28;20042;-65
2023/04/02 02:07:42;;;;;;;4.40;1.77;;;6.50;97.60;;;;;;5079773;28;20084;-65
2023/04/02 02:10:16;;;;;;;7.10;2.67;;;6.50;97.60;;;;;;5089275;28;20028;-66
2023/04/02 02:12:43;;;;;;;;;;;6.60;98.00;;;;;;5077796;28;20028;-65
2023/04/02 02:15:20;;;;;;;3.72;1.40;;;6.60;98.00;;;;;;5092451;28;19908;-66
2023/04/02 02:17:46;;;;;;;5.03;1.63;;;6.70;98.00;;;;;;5080013;28;20026;-66
2023/04/02 02:20:13;;;;;;;5.57;2.40;;;6.70;98.00;;;;;;5093993;28;20050;-66
2023/04/02 02:22:45;;;;;;;5.20;1.55;;;6.70;98.00;;;;;;5088921;28;20059;-65
2023/04/02 02:25:15;;;;;;;6.05;1.70;;;6.70;98.00;;;;;;5076732;28;20021;-66
2023/04/02 02:27:53;;;;;;;5.38;1.30;;;6.60;97.80;;;;;;5083295;28;20039;-65
2023/04/02 02:30:30;;;;;;;7.18;2.80;;;6.60;98.00;;;;;;5074238;28;20025;-65
2023/04/02 02:33:04;;;;;;;5.75;2.00;;;6.60;97.90;;;;;;5082191;28;20016;-66
2023/04/02 02:35:56;;;;;;;4.75;1.42;;;6.60;97.80;;;;;;5076320;28;20020;-65
2023/04/02 02:38:26;;;;;;;3.60;1.10;;;6.60;98.00;;;;;;5080599;28;20055;-65
2023/04/02 02:40:56;;;;;;;2.60;1.10;;;6.60;97.80;;;;;;5089467;28;20031;-66
2023/04/02 02:43:23;;;;;;;2.85;1.25;;;6.60;97.80;;;;;;5084195;28;20141;-65
2023/04/02 02:45:51;;;;;;;2.67;1.23;;;6.60;98.00;;;;;;5077430;28;20103;-65
2023/04/02 02:48:20;;;;;;;2.70;1.10;;;6.50;97.70;;;;;;5083986;28;20028;-65
2023/04/02 02:50:46;;;;;;;2.30;1.30;;;6.50;97.70;;;;;;5075792;28;20032;-65
2023/04/02 02:53:21;;;;;;;12.32;3.72;;;6.50;97.60;;;;;;5082217;28;20563;-65
2023/04/02 02:55:53;;;;;;;5.85;1.77;;;6.50;97.60;;;;;;5082208;28;20112;-66
2023/04/02 02:58:31;;;;;;;6.43;2.08;;;6.50;97.50;;;;;;5081990;28;20047;-65
2023/04/02 03:00:57;;;;;;;5.90;2.05;;;6.50;97.40;;;;;;5075985;28;20436;-66
2023/04/02 03:03:26;;;;;;;6.93;2.17;;;6.50;97.60;;;;;;5090925;28;20036;-66
2023/04/02 03:06:05;;;;;;;4.93;1.60;;;6.50;97.50;;;;;;5084043;28;20374;-65
2023/04/02 03:09:03;;;;;;;5.10;1.75;;;6.60;97.80;;;;;;5082914;28;20020;-65
2023/04/02 03:12:01;;;;;;;3.33;1.35;;;6.50;97.30;;;;;;5085133;28;20040;-65
2023/04/02 03:14:39;;;;;;;4.85;1.50;;;6.40;96.30;;;;;;5075026;28;20360;-65
2023/04/02 03:17:16;;;;;;;4.63;1.20;;;6.30;95.70;;;;;;5076425;28;20077;-66
2023/04/02 03:20:00;;;;;;;3.42;1.10;;;6.20;95.10;;;;;;5080798;28;20043;-65
2023/04/02 03:23:02;;;;;;;4.10;1.25;;;6.10;94.40;;;;;;5084459;28;20077;-65
2023/04/02 03:25:47;;;;;;;2.75;1.10;;;6.00;94.40;;;;;;5073648;28;20076;-65
2023/04/02 03:28:18;;;;;;;3.40;1.30;;;6.00;93.40;;;;;;5076567;28;20027;-65
2023/04/02 03:30:49;;;;;;;2.78;1.20;;;5.90;93.30;;;;;;5085261;28;20024;-67
2023/04/02 03:33:28;;;;;;;5.20;1.45;;;5.90;94.30;;;;;;5080162;28;20054;-67
2023/04/02 03:35:58;;;;;;;3.80;1.30;;;5.90;94.40;;;;;;5081780;28;20154;-66
2023/04/02 03:38:31;;;;;;;2.20;1.10;;;5.90;93.30;;;;;;5074506;28;20318;-65
2023/04/02 03:41:00;;;;;;;2.83;1.33;;;5.90;93.20;;;;;;5078551;28;20020;-66
2023/04/02 03:43:33;;;;;;;4.22;1.20;;;6.00;92.40;;;;;;5077177;28;20317;-65
2023/04/02 03:46:21;;;;;;;3.42;1.33;;;6.00;92.60;;;;;;5090883;28;20036;-66
2023/04/02 03:49:24;;;;;;;1.73;1.10;;;6.00;92.30;;;;;;5073752;28;20327;-66
2023/04/02 03:52:23;;;;;;;2.45;1.00;;;5.90;91.90;;;;;;5082484;28;20310;-66
2023/04/02 03:54:49;;;;;;;5.10;1.23;;;5.90;91.90;;;;;;5074876;28;20040;-66
2023/04/02 03:57:28;;;;;;;4.15;1.35;;;6.00;92.50;;;;;;5086379;28;20043;-65
2023/04/02 04:00:03;;;;;;;2.78;1.10;;;6.00;93.40;;;;;;5077768;28;20025;-66
2023/04/02 04:02:39;;;;;;;3.17;1.30;;;6.00;94.90;;;;;;5088518;28;20021;-66
2023/04/02 04:05:06;;;;;;;4.50;1.35;;;6.10;94.20;;;;;;5097563;28;20324;-65
2023/04/02 04:07:35;;;;;;;3.30;1.30;;;6.10;93.20;;;;;;5091230;28;20043;-65
2023/04/02 04:10:03;;;;;;;5.97;2.33;;;6.10;95.20;;;;;;5091281;28;20028;-66
2023/04/02 04:12:45;;;;;;;3.72;1.75;;;6.10;94.70;;;;;;5091980;28;20028;-66
2023/04/02 04:15:35;;;;;;;3.88;1.85;;;6.20;94.50;;;;;;5077371;28;20033;-66
2023/04/02 04:18:18;;;;;;;3.38;1.17;;;6.20;94.20;;;;;;5084591;28;20033;-66
2023/04/02 04:20:55;;;;;;;4.40;1.20;;;6.10;93.90;;;;;;5083824;28;20085;-65
2023/04/02 04:23:37;;;;;;;2.90;1.33;;;6.10;92.90;;;;;;5082004;28;20313;-66
2023/04/02 04:26:24;;;;;;;4.13;1.20;;;6.00;92.30;;;;;;5079360;28;20042;-66
2023/04/02 04:29:17;;;;;;;4.00;1.30;;;6.00;92.20;;;;;;5087978;28;20048;-66
2023/04/02 04:31:48;;;;;;;3.42;1.10;;;5.90;91.80;;;;;;5088251;28;20035;-66
2023/04/02 04:34:25;;;;;;;5.35;1.20;;;5.90;92.20;;;;;;5083688;28;20063;-66
2023/04/02 04:36:55;;;;;;;3.58;1.10;;;5.90;91.40;;;;;;5077654;28;20025;-66
2023/04/02 04:39:51;;;;;;;4.13;1.25;;;5.90;90.90;;;;;;5086458;28;20348;-66
2023/04/02 04:42:24;;;;;;;3.33;1.20;;;5.90;90.70;;;;;;5083018;28;20105;-65
2023/04/02 04:44:56;;;;;;;4.47;2.00;;;5.80;89.30;;;;;;5081124;28;20067;-66
2023/04/02 04:47:37;;;;;;;40.75;22.80;;;5.80;88.90;;;;;;5086640;28;20274;-66
2023/04/02 04:50:07;;;;;;;4.07;1.50;;;5.80;88.70;;;;;;5081668;28;20040;-66
2023/04/02 04:52:36;;;;;;;3.63;1.30;;;5.90;88.80;;;;;;5094591;28;20025;-66
2023/04/02 04:55:21;;;;;;;3.45;1.27;;;6.00;90.50;;;;;;5092032;28;20562;-66
2023/04/02 04:57:48;;;;;;;2.92;1.20;;;6.00;90.30;;;;;;5080393;28;20123;-67
2023/04/02 05:00:21;;;;;;;3.75;1.65;;;6.00;91.30;;;;;;5078829;28;20139;-66
2023/04/02 05:03:02;;;;;;;3.53;1.20;;;6.00;91.60;;;;;;5079904;28;20030;-66
2023/04/02 05:05:30;;;;;;;3.03;1.40;;;6.00;92.30;;;;;;5080210;28;20067;-65
2023/04/02 05:08:03;;;;;;;3.85;1.40;;;5.90;90.40;;;;;;5086363;28;20024;-66
2023/04/02 05:10:38;;;;;;;11.63;7.78;;;5.80;88.60;;;;;;5092067;28;20028;-66
2023/04/02 05:13:19;;;;;;;5.70;2.50;;;5.80;87.20;;;;;;5082447;28;20480;-66
2023/04/02 05:15:55;;;;;;;3.78;1.63;;;5.80;86.40;;;;;;5079334;28;20033;-65
2023/04/02 05:18:49;;;;;;;6.25;1.60;;;5.80;85.60;;;;;;5081639;28;20017;-66
2023/04/02 05:21:39;;;;;;;5.60;1.50;;;5.80;84.50;;;;;;5082517;28;20144;-66
2023/04/02 05:24:35;;;;;;;3.40;1.48;;;5.90;86.10;;;;;;5082629;28;20021;-66
2023/04/02 05:27:11;;;;;;;5.80;2.28;;;5.90;86.40;;;;;;5075844;28;20362;-66
2023/04/02 05:29:41;;;;;;;5.13;1.90;;;5.90;85.50;;;;;;5075068;28;20024;-65
2023/04/02 05:32:26;;;;;;;4.40;1.50;;;5.90;83.60;;;;;;5079463;28;20024;-66
2023/04/02 05:34:54;;;;;;;3.25;1.20;;;6.00;85.50;;;;;;5084313;28;20054;-66
2023/04/02 05:37:25;;;;;;;3.67;1.45;;;6.00;87.70;;;;;;5077025;28;20046;-66
2023/04/02 05:40:17;;;;;;;4.75;1.65;;;6.10;88.30;;;;;;5078421;28;20107;-66
2023/04/02 05:42:48;;;;;;;4.38;1.70;;;6.20;88.60;;;;;;5080830;28;20113;-66
2023/04/02 05:45:13;;;;;;;4.35;1.42;;;6.20;87.70;;;;;;5076299;28;20074;-66
2023/04/02 05:47:42;;;;;;;4.13;1.67;;;6.20;87.70;;;;;;5073186;28;20058;-66
2023/04/02 05:50:08;;;;;;;3.47;1.50;;;6.20;88.40;;;;;;5083346;28;20028;-66
2023/04/02 05:52:57;;;;;;;3.47;1.27;;;6.20;90.00;;;;;;5074677;28;20071;-66
2023/04/02 05:55:34;;;;;;;2.95;1.15;;;6.20;89.80;;;;;;5080405;28;20112;-66
2023/04/02 05:58:08;;;;;;;4.75;1.60;;;6.30;90.70;;;;;;5084740;28;20558;-66
2023/04/02 06:00:37;;;;;;;3.33;1.10;;;6.30;90.60;;;;;;5075037;28;20113;-66
2023/04/02 06:03:19;;;;;;;4.38;1.25;;;6.30;92.20;;;;;;5078755;28;20032;-66
2023/04/02 06:05:45;;;;;;;2.42;1.15;;;6.20;92.40;;;;;;5081432;28;20032;-66
2023/04/02 06:08:15;;;;;;;3.38;1.35;;;6.20;92.30;;;;;;5088347;28;20031;-66
2023/04/02 06:11:07;;;;;;;3.13;1.10;;;6.20;91.30;;;;;;5079897;28;20081;-66
2023/04/02 06:13:33;;;;;;;5.90;1.60;;;6.20;92.10;;;;;;5085429;28;20036;-67
2023/04/02 06:15:58;;;;;;;5.10;2.28;;;6.30;92.30;;;;;;5080748;28;20039;-66
2023/04/02 06:18:26;;;;;;;2.33;1.08;;;6.30;93.10;;;;;;5078387;28;20704;-66
2023/04/02 06:20:54;;;;;;;2.80;1.40;;;6.40;92.50;;;;;;5077147;28;20028;-67
2023/04/02 06:23:48;;;;;;;2.72;1.35;;;6.40;91.60;;;;;;5084478;28;20035;-66
2023/04/02 06:26:25;;;;;;;2.63;1.20;;;6.60;92.80;;;;;;5087657;28;20055;-66
2023/04/02 06:29:18;;;;;;;4.00;1.15;;;6.70;94.60;;;;;;5077431;28;20529;-66
2023/04/02 06:31:50;;;;;;;2.55;1.00;;;6.80;95.70;;;;;;5078863;28;20067;-66
2023/04/02 06:34:19;;;;;;;4.22;2.50;;;6.80;96.40;;;;;;5092281;28;20042;-66
2023/04/02 06:36:46;;;;;;;4.22;1.40;;;6.80;97.00;;;;;;5073712;28;21767;-66
2023/04/02 06:39:24;;;;;;;4.05;0.90;;;6.90;95.80;;;;;;5080169;28;20052;-66
2023/04/02 06:42:08;;;;;;;1.95;1.00;;;6.90;97.40;;;;;;5079498;28;20024;-67
2023/04/02 06:44:37;;;;;;;2.60;1.40;;;6.80;96.10;;;;;;5071265;28;20024;-67
2023/04/02 06:47:16;;;;;;;2.60;1.08;;;6.80;94.60;;;;;;5079399;28;20044;-66
2023/04/02 06:49:45;;;;;;;1.77;1.00;;;6.90;95.80;;;;;;5075852;28;20032;-65
2023/04/02 06:52:39;;;;;;;1.50;0.90;;;6.90;97.50;;;;;;5089981;28;20141;-66
2023/04/02 06:55:29;;;;;;;2.45;1.10;;;7.00;97.80;;;;;;5085530;28;20437;-65
2023/04/02 06:57:55;;;;;;;2.03;0.90;;;7.10;98.00;;;;;;5082836;28;20041;-66
2023/04/02 07:00:47;;;;;;;2.08;0.90;;;7.10;97.60;;;;;;5079010;28;20331;-66
2023/04/02 07:03:22;;;;;;;2.42;1.00;;;7.10;98.00;;;;;;5087548;28;20032;-66
2023/04/02 07:05:48;;;;;;;2.60;1.00;;;7.20;97.60;;;;;;5073813;28;20042;-65
2023/04/02 07:08:14;;;;;;;2.53;1.02;;;7.40;98.00;;;;;;5086697;28;20032;-65
2023/04/02 07:10:39;;;;;;;2.92;1.13;;;7.60;98.00;;;;;;5089159;28;20035;-65
2023/04/02 07:13:05;;;;;;;1.92;0.88;;;7.70;98.00;;;;;;5083725;28;20024;-66
2023/04/02 07:15:31;;;;;;;1.42;0.88;;;7.80;98.00;;;;;;5087914;28;20031;-65
2023/04/02 07:17:58;;;;;;;3.65;0.90;;;7.90;98.00;;;;;;5083499;28;20020;-65
2023/04/02 07:20:28;;;;;;;2.13;1.00;;;8.00;98.00;;;;;;5086396;28;20032;-65
2023/04/02 07:22:54;;;;;;;1.52;0.90;;;8.20;98.00;;;;;;5091456;28;20052;-65
2023/04/02 07:25:20;;;;;;;3.88;1.27;;;8.30;97.70;;;;;;5081241;28;20058;-67
2023/04/02 07:27:46;;;;;;;2.95;0.90;;;8.30;97.80;;;;;;5080299;28;20386;-65
2023/04/02 07:30:11;;;;;;;2.20;1.10;;;8.40;97.60;;;;;;5088698;28;20071;-65
2023/04/02 07:32:38;;;;;;;2.20;1.05;;;8.40;97.40;;;;;;5089453;28;20029;-64
2023/04/02 07:35:04;;;;;;;3.15;0.95;;;8.50;97.40;;;;;;5088965;28;20024;-64
2023/04/02 07:37:30;;;;;;;2.05;1.00;;;8.60;97.10;;;;;;5077596;28;20067;-64
2023/04/02 07:39:56;;;;;;;2.30;1.10;;;8.50;96.50;;;;;;5089697;28;20044;-64
2023/04/02 07:42:22;;;;;;;2.38;1.17;;;8.50;97.00;;;;;;5078644;28;20021;-69
2023/04/02 07:44:48;;;;;;;1.70;0.90;;;8.40;96.30;;;;;;5076135;28;20017;-65
2023/04/02 07:47:13;;;;;;;2.33;1.30;;;8.40;96.50;;;;;;5076086;28;20036;-65
2023/04/02 07:49:39;;;;;;;2.60;1.30;;;8.30;96.50;;;;;;5092746;28;20031;-66
2023/04/02 07:52:05;;;;;;;2.78;1.35;;;8.30;97.40;;;;;;5092307;28;20488;-65
2023/04/02 07:54:31;;;;;;;2.22;1.00;;;8.50;97.20;;;;;;5079977;28;20515;-66
2023/04/02 07:56:56;;;;;;;3.60;1.60;;;8.50;96.70;;;;;;5091619;28;20150;-66
2023/04/02 07:59:22;;;;;;;1.40;0.80;;;8.60;96.80;;;;;;5079597;28;20302;-65
2023/04/02 08:01:52;;;;;;;3.05;1.35;;;8.70;96.00;;;;;;5079585;28;20070;-65
2023/04/02 08:04:21;;;;;;;2.47;1.20;;;8.60;95.70;;;;;;5084369;28;20077;-65
2023/04/02 08:06:48;;;;;;;3.58;1.55;;;8.60;96.10;;;;;;5092564;28;20020;-65
2023/04/02 08:09:15;;;;;;;3.05;1.50;;;8.80;96.40;;;;;;5080156;28;20511;-65
2023/04/02 08:11:41;;;;;;;2.42;1.00;;;8.90;95.60;;;;;;5078483;28;20023;-64
2023/04/02 08:14:08;;;;;;;3.95;1.70;;;8.90;94.80;;;;;;5088779;28;20325;-65
2023/04/02 08:16:44;;;;;;;2.63;1.20;;;8.80;95.60;;;;;;5089992;28;20029;-64
2023/04/02 08:19:10;;;;;;;3.83;1.50;;;8.70;95.80;;;;;;5077286;28;20341;-65
2023/04/02 08:21:36;;;;;;;2.08;1.10;;;8.90;95.70;;;;;;5076025;28;20028;-64
2023/04/02 08:24:03;;;;;;;2.35;1.15;;;9.30;96.00;;;;;;5083049;28;20422;-65
2023/04/02 08:26:28;;;;;;;2.03;1.00;;;9.50;94.20;;;;;;5080950;28;20085;-66
2023/04/02 08:28:54;;;;;;;1.73;0.90;;;9.70;93.70;;;;;;5084433;28;20032;-66
2023/04/02 08:31:19;;;;;;;2.05;0.90;;;9.60;93.10;;;;;;5084743;28;20033;-66
2023/04/02 08:33:45;;;;;;;4.10;1.73;;;9.50;93.60;;;;;;5074659;28;20107;-66
2023/04/02 08:36:15;;;;;;;3.38;1.73;;;9.60;94.00;;;;;;5082648;28;20406;-66
2023/04/02 08:38:41;;;;;;;4.65;2.05;;;9.60;93.90;;;;;;5089585;28;20035;-66
2023/04/02 08:41:14;;;;;;;3.10;1.42;;;9.60;93.90;;;;;;5093387;28;20028;-66
2023/04/02 08:43:43;;;;;;;3.20;1.42;;;9.70;94.30;;;;;;5081813;28;20020;-66
2023/04/02 08:46:25;;;;;;;3.75;1.30;;;10.00;93.70;;;;;;5080894;28;20028;-66
2023/04/02 08:48:56;;;;;;;2.70;1.00;;;10.20;92.30;;;;;;5087063;28;20035;-66
2023/04/02 08:51:29;;;;;;;2.10;1.00;;;10.00;91.70;;;;;;5089327;28;20024;-66
2023/04/02 08:54:00;;;;;;;6.70;2.65;;;10.00;92.90;;;;;;5082511;28;20025;-66
2023/04/02 08:56:36;;;;;;;4.25;1.50;;;10.00;92.40;;;;;;5084153;28;20039;-66
2023/04/02 08:59:21;;;;;;;3.05;1.10;;;10.00;92.10;;;;;;5073559;28;20052;-66
2023/04/02 09:02:12;;;;;;;2.17;1.10;;;9.90;92.40;;;;;;5074990;28;20028;-66
2023/04/02 09:04:41;;;;;;;3.80;1.90;;;10.10;92.50;;;;;;5077849;28;20082;-66
2023/04/02 09:07:13;;;;;;;3.15;1.10;;;10.40;93.00;;;;;;5076481;28;20441;-65
2023/04/02 09:09:39;;;;;;;1.17;0.80;;;11.10;92.20;;;;;;5084515;28;20025;-65
2023/04/02 09:12:14;;;;;;;1.48;0.70;;;11.40;88.60;;;;;;5080100;28;20077;-66
2023/04/02 09:14:43;;;;;;;2.55;1.20;;;11.20;87.90;;;;;;5081967;28;20025;-65
2023/04/02 09:17:25;;;;;;;3.22;1.35;;;10.90;89.60;;;;;;5083146;28;20464;-65
2023/04/02 09:20:01;;;;;;;2.85;1.02;;;11.30;89.10;;;;;;5094036;28;20055;-66
2023/04/02 09:22:30;;;;;;;4.82;2.17;;;11.40;88.40;;;;;;5073357;28;20024;-66
2023/04/02 09:25:01;;;;;;;1.83;0.90;;;11.60;88.00;;;;;;5074769;28;20043;-66
2023/04/02 09:27:30;;;;;;;10.32;5.03;;;11.70;88.20;;;;;;5078691;28;20032;-67
2023/04/02 09:30:14;;;;;;;2.58;0.90;;;11.60;87.90;;;;;;5082418;28;20291;-66
2023/04/02 09:33:01;;;;;;;4.97;1.88;;;11.70;87.30;;;;;;5085622;28;20031;-66
2023/04/02 09:35:29;;;;;;;7.47;3.13;;;11.40;87.20;;;;;;5079445;28;20036;-66
2023/04/02 09:38:27;;;;;;;2.40;1.00;;;11.60;87.90;;;;;;5079822;28;20024;-65
2023/04/02 09:40:53;;;;;;;10.43;4.55;;;11.90;87.90;;;;;;5077166;28;20039;-66
2023/04/02 09:43:21;;;;;;;3.17;1.48;;;12.20;87.20;;;;;;5081133;28;20020;-66
2023/04/02 09:46:18;;;;;;;6.70;2.75;;;12.10;86.40;;;;;;5077964;28;20432;-66
2023/04/02 09:48:59;;;;;;;5.78;2.50;;;12.10;87.90;;;;;;5072450;28;20739;-66
2023/04/02 09:51:33;;;;;;;4.57;1.75;;;12.20;87.60;;;;;;5077888;28;20048;-66
2023/04/02 09:54:02;;;;;;;2.05;0.93;;;12.10;86.50;;;;;;5086746;28;20111;-66
2023/04/02 09:56:33;;;;;;;2.85;1.40;;;12.00;87.50;;;;;;5078053;28;20028;-66
2023/04/02 09:59:16;;;;;;;1.70;0.80;;;12.00;88.20;;;;;;5074757;28;20368;-66
2023/04/02 10:01:57;;;;;;;2.58;0.80;;;12.40;85.40;;;;;;5079925;28;20081;-65
2023/04/02 10:04:44;;;;;;;2.20;0.90;;;12.50;85.60;;;;;;5090781;28;20325;-64
2023/04/02 10:07:41;;;;;;;2.80;0.90;;;12.70;84.70;;;;;;5079277;28;20036;-66
2023/04/02 10:10:26;;;;;;;1.67;0.90;;;12.60;85.40;;;;;;5073053;28;20032;-66
2023/04/02 10:13:27;;;;;;;1.13;0.60;;;12.70;85.50;;;;;;5081953;28;20062;-66
2023/04/02 10:16:16;;;;;;;2.67;0.90;;;12.80;84.00;;;;;;5081161;28;20032;-65
2023/04/02 10:18:49;;;;;;;2.60;1.05;;;12.90;85.20;;;;;;5078160;28;20020;-66
2023/04/02 10:21:20;;;;;;;1.05;0.70;;;13.00;84.40;;;;;;5083333;28;20021;-66
2023/04/02 10:23:46;;;;;;;1.75;0.80;;;12.60;83.70;;;;;;5076438;28;20024;-66
2023/04/02 10:26:42;;;;;;;2.20;1.00;;;12.20;84.80;;;;;;5085298;28;20440;-65
2023/04/02 10:29:26;;;;;;;2.08;1.20;;;12.40;85.40;;;;;;5075671;28;20127;-66
2023/04/02 10:32:28;;;;;;;3.40;1.30;;;12.50;85.60;;;;;;5090435;28;20135;-67
2023/04/02 10:35:18;;;;;;;2.95;1.30;;;12.90;83.90;;;;;;5082554;28;20059;-66
2023/04/02 10:38:05;;;;;;;0.93;0.70;;;13.00;84.10;;;;;;5081444;28;20032;-65
2023/04/02 10:40:31;;;;;;;1.45;0.80;;;12.50;84.10;;;;;;5074879;28;20032;-65
2023/04/02 10:43:24;;;;;;;1.23;0.80;;;11.90;86.00;;;;;;5091405;28;20397;-66
2023/04/02 10:46:01;;;;;;;1.88;0.90;;;11.80;86.60;;;;;;5078204;28;20024;-66
2023/04/02 10:48:37;;;;;;;1.67;0.90;;;12.00;86.80;;;;;;5087519;28;20059;-66
2023/04/02 10:51:22;;;;;;;1.58;0.70;;;12.40;85.80;;;;;;5089504;28;20040;-66
2023/04/02 10:54:20;;;;;;;2.75;1.20;;;12.70;83.80;;;;;;5083413;28;20025;-66
2023/04/02 10:56:48;;;;;;;3.22;1.20;;;12.60;84.40;;;;;;5073736;28;20029;-66
2023/04/02 10:59:18;;;;;;;3.83;1.40;;;12.20;86.50;;;;;;5081056;28;20355;-66
2023/04/02 11:01:47;;;;;;;4.85;1.52;;;12.00;87.30;;;;;;5083104;28;20032;-66
2023/04/02 11:04:27;;;;;;;3.55;1.52;;;11.70;87.30;;;;;;5078112;28;20039;-66
2023/04/02 11:07:01;;;;;;;2.97;1.23;;;11.70;87.90;;;;;;5083986;28;20028;-65
2023/04/02 11:09:30;;;;;;;2.17;0.93;;;11.50;88.20;;;;;;5095623;28;20032;-65
2023/04/02 11:11:58;;;;;;;2.80;1.35;;;11.60;88.90;;;;;;5089177;28;20036;-65
2023/04/02 11:14:30;;;;;;;3.08;1.33;;;12.00;87.80;;;;;;5078268;28;20089;-65
2023/04/02 11:16:59;;;;;;;2.95;1.10;;;12.10;86.80;;;;;;5084678;28;20438;-66
2023/04/02 11:19:33;;;;;;;1.27;0.70;;;12.30;85.00;;;;;;5080064;28;20145;-65
2023/04/02 11:22:03;;;;;;;2.00;0.80;;;12.50;84.80;;;;;;5090915;28;20113;-66
2023/04/02 11:24:41;;;;;;;1.90;0.80;;;13.00;83.50;;;;;;5079943;28;20082;-65
2023/04/02 11:27:15;;;;;;;3.08;0.88;;;13.50;82.00;;;;;;5084856;28;20024;-65
2023/04/02 11:29:45;;;;;;;;;;;13.60;81.50;;;;;;5082300;28;20024;-65
2023/04/02 11:32:20;;;;;;;8.38;2.65;;;13.60;81.90;;;;;;5092243;28;19912;-66
2023/04/02 11:34:49;;;;;;;1.67;0.90;;;13.60;81.70;;;;;;5078076;28;20028;-66
2023/04/02 11:37:38;;;;;;;1.63;0.70;;;13.70;81.80;;;;;;5094069;28;20492;-66
2023/04/02 11:40:09;;;;;;;2.25;1.17;;;14.20;81.60;;;;;;5077714;28;20282;-65
2023/04/02 11:42:39;;;;;;;4.32;1.60;;;14.20;79.80;;;;;;5079148;28;20024;-65
2023/04/02 11:45:43;;;;;;;2.55;1.05;;;14.10;81.00;;;;;;5090190;28;20060;-65
2023/04/02 11:48:14;;;;;;;2.58;0.90;;;14.20;80.50;;;;;;5080983;28;20036;-66
2023/04/02 11:50:44;;;;;;;1.88;0.93;;;14.50;79.00;;;;;;5077941;28;20028;-65
2023/04/02 11:53:10;;;;;;;1.83;0.95;;;14.20;79.70;;;;;;5090829;28;20040;-66
2023/04/02 11:55:46;;;;;;;1.15;0.60;;;13.90;78.60;;;;;;5093720;28;20027;-66
2023/04/02 11:58:24;;;;;;;1.00;0.60;;;13.60;78.90;;;;;;5090769;28;20041;-66
2023/04/02 12:01:06;;;;;;;1.30;0.60;;;13.50;81.00;;;;;;5066017;28;20426;-66
2023/04/02 12:03:47;;;;;;;1.40;0.70;;;13.50;81.10;;;;;;5060969;28;20059;-66
2023/04/02 12:06:31;;;;;;;1.17;0.70;;;14.00;81.40;;;;;;5086274;28;20039;-65
2023/04/02 12:09:21;;;;;;;1.10;0.60;;;14.50;79.40;;;;;;5082637;28;20065;-63
2023/04/02 12:11:48;;;;;;;1.70;0.80;;;14.70;79.00;;;;;;5061572;28;20036;-64
2023/04/02 12:14:35;;;;;;;5.60;2.15;;;14.60;79.20;;;;;;5068821;28;20040;-65
2023/04/02 12:17:03;;;;;;;1.58;0.70;;;14.80;78.80;;;;;;5064430;28;20708;-66
2023/04/02 12:19:30;;;;;;;0.75;0.57;;;14.60;78.60;;;;;;5061393;28;20024;-64
2023/04/02 12:21:58;;;;;;;1.35;0.70;;;14.80;77.60;;;;;;5060566;28;20040;-66
2023/04/02 12:24:30;;;;;;;1.05;0.63;;;14.80;78.20;;;;;;5062713;28;20028;-65
2023/04/02 12:27:21;;;;;;;1.13;0.60;;;14.40;77.50;;;;;;5063037;28;20037;-65
2023/04/02 12:29:47;;;;;;;1.15;0.63;;;14.20;78.70;;;;;;5076613;28;20036;-65
2023/04/02 12:32:28;;;;;;;4.90;0.75;;;14.20;79.00;;;;;;5061741;28;20514;-65
2023/04/02 12:34:56;;;;;;;1.38;0.60;;;14.10;81.00;;;;;;5058961;28;20033;-65
2023/04/02 12:37:26;;;;;;;1.77;0.82;;;14.40;80.40;;;;;;5063251;28;20078;-65
2023/04/02 12:39:57;;;;;;;1.98;0.82;;;14.50;79.80;;;;;;5071494;28;20569;-65
2023/04/02 12:42:37;;;;;;;1.35;0.63;;;14.30;80.40;;;;;;5081328;28;20060;-65
2023/04/02 12:45:05;;;;;;;1.85;0.90;;;14.40;79.00;;;;;;5077272;28;20028;-65
2023/04/02 12:47:31;;;;;;;1.92;0.98;;;14.20;79.30;;;;;;5089263;28;20425;-65
2023/04/02 12:49:59;;;;;;;3.08;0.90;;;13.60;80.10;;;;;;5088030;28;20325;-65
2023/04/02 12:52:27;;;;;;;1.25;0.80;;;13.10;83.00;;;;;;5082919;28;20016;-65
2023/04/02 12:55:03;;;;;;;2.17;1.02;;;13.40;82.90;;;;;;5074432;28;20043;-66
2023/04/02 12:57:31;;;;;;;3.20;1.40;;;13.30;84.40;;;;;;5032904;28;1254897;-67
2023/04/02 13:00:04;;;;;;;2.85;1.20;;;12.80;86.60;;;;;;5070846;28;20028;-66
2023/04/02 13:02:43;;;;;;;3.45;1.13;;;12.40;88.10;;;;;;5083288;28;20027;-65
2023/04/02 13:05:10;;;;;;;2.08;1.08;;;12.10;88.80;;;;;;5081067;28;20310;-65
2023/04/02 13:07:37;;;;;;;2.40;1.30;;;11.90;89.80;;;;;;5080172;28;20032;-66
2023/04/02 13:10:24;;;;;;;2.53;1.10;;;12.10;89.40;;;;;;5074307;28;20032;-65
2023/04/02 13:12:56;;;;;;;2.15;1.17;;;12.10;89.00;;;;;;5075011;28;20029;-65
2023/04/02 13:15:33;;;;;;;2.58;1.10;;;12.00;89.10;;;;;;5081212;28;20028;-65
2023/04/02 13:18:17;;;;;;;3.08;1.20;;;11.90;90.00;;;;;;5091741;28;20020;-66
2023/04/02 13:20:56;;;;;;;1.85;1.00;;;12.20;88.80;;;;;;5091556;28;21592;-66
2023/04/02 13:23:28;;;;;;;3.08;1.20;;;12.40;88.70;;;;;;5081234;28;20367;-66
2023/04/02 13:26:15;;;;;;;3.03;1.05;;;12.60;88.80;;;;;;5085189;28;20439;-66
2023/04/02 13:28:41;;;;;;;1.90;0.80;;;12.90;87.30;;;;;;5075795;28;20024;-66
2023/04/02 13:31:17;;;;;;;2.00;0.90;;;13.10;85.90;;;;;;5084922;28;20020;-66
2023/04/02 13:33:43;;;;;;;2.38;1.10;;;12.90;86.00;;;;;;5086582;28;20020;-66